createdAt,value
2017-12-06T00:02:02.369Z,15.70
2017-12-06T00:04:31.222Z,14.53
2017-12-06T00:07:00.078Z,15.40
2017-12-06T00:09:28.972Z,15.07
2017-12-06T00:11:57.816Z,15.50
2017-12-06T00:14:32.588Z,14.97
2017-12-06T00:17:01.451Z,15.70
2017-12-06T00:19:30.295Z,15.60
2017-12-06T00:21:59.133Z,15.67
2017-12-06T00:24:27.993Z,16.43
2017-12-06T00:26:57.516Z,16.00
2017-12-06T00:29:26.359Z,15.83
2017-12-06T00:31:56.143Z,16.53
2017-12-06T00:34:24.983Z,16.83
2017-12-06T00:36:53.845Z,17.17
2017-12-06T00:39:22.719Z,16.90
2017-12-06T00:41:52.593Z,16.93
2017-12-06T00:44:21.447Z,15.87
2017-12-06T00:46:50.642Z,15.37
2017-12-06T00:49:19.487Z,17.63
2017-12-06T00:51:48.335Z,16.30
2017-12-06T00:54:17.203Z,17.70
2017-12-06T00:56:46.051Z,16.20
2017-12-06T00:59:14.905Z,16.20
2017-12-06T01:01:43.763Z,17.20
2017-12-06T01:04:12.615Z,16.93
2017-12-06T01:06:41.451Z,15.43
2017-12-06T01:09:10.315Z,17.03
2017-12-06T01:11:39.148Z,16.97
2017-12-06T01:14:08.003Z,16.47
2017-12-06T01:16:36.872Z,16.63
2017-12-06T01:19:05.743Z,16.87
2017-12-06T01:21:34.597Z,16.43
2017-12-06T01:24:03.471Z,17.67
2017-12-06T01:26:32.331Z,16.97
2017-12-06T01:29:01.197Z,17.97
2017-12-06T01:31:30.071Z,17.13
2017-12-06T01:33:59.865Z,16.60
2017-12-06T01:36:28.785Z,16.93
2017-12-06T01:38:57.665Z,16.83
2017-12-06T01:41:26.517Z,17.67
2017-12-06T01:43:55.377Z,18.00
2017-12-06T01:46:24.260Z,18.03
2017-12-06T01:48:53.105Z,17.47
2017-12-06T01:51:21.945Z,19.10
2017-12-06T01:53:50.816Z,17.10
2017-12-06T01:56:19.663Z,17.77
2017-12-06T01:58:48.623Z,18.27
2017-12-06T02:01:17.511Z,16.53
2017-12-06T02:03:46.379Z,16.80
2017-12-06T02:06:15.227Z,17.10
2017-12-06T02:08:44.153Z,17.27
2017-12-06T02:11:12.991Z,17.47
2017-12-06T02:13:41.839Z,16.97
2017-12-06T02:16:11.537Z,16.20
2017-12-06T02:18:40.385Z,16.63
2017-12-06T02:21:09.261Z,16.23
2017-12-06T02:23:38.143Z,15.10
2017-12-06T02:26:06.991Z,16.23
2017-12-06T02:28:35.828Z,16.20
2017-12-06T02:31:04.721Z,15.33
2017-12-06T02:33:33.561Z,15.13
2017-12-06T02:36:02.443Z,16.60
2017-12-06T02:38:31.314Z,16.50
2017-12-06T02:41:06.021Z,16.10
2017-12-06T02:43:40.604Z,15.60
2017-12-06T02:46:09.475Z,15.83
2017-12-06T02:48:38.359Z,15.07
2017-12-06T02:51:07.240Z,16.47
2017-12-06T02:53:36.103Z,15.57
2017-12-06T02:56:04.972Z,15.63
2017-12-06T02:58:33.837Z,15.57
2017-12-06T03:01:02.693Z,15.63
2017-12-06T03:03:31.921Z,14.40
2017-12-06T03:06:00.801Z,15.47
2017-12-06T03:08:29.665Z,14.23
2017-12-06T03:10:58.551Z,14.50
2017-12-06T03:13:27.411Z,14.77
2017-12-06T03:15:56.253Z,14.90
2017-12-06T03:18:25.887Z,14.10
2017-12-06T03:20:54.752Z,13.87
2017-12-06T03:23:23.596Z,13.30
2017-12-06T03:25:52.460Z,13.97
2017-12-06T03:28:22.149Z,13.43
2017-12-06T03:30:51.006Z,13.10
2017-12-06T03:33:19.855Z,12.10
2017-12-06T03:35:48.839Z,11.77
2017-12-06T03:38:18.291Z,13.40
2017-12-06T03:40:47.907Z,12.53
2017-12-06T03:43:16.814Z,12.67
2017-12-06T03:45:45.665Z,13.00
2017-12-06T03:48:14.543Z,12.03
2017-12-06T03:50:43.507Z,12.03
2017-12-06T03:53:12.366Z,12.43
2017-12-06T03:55:41.211Z,11.60
2017-12-06T03:58:10.067Z,11.07
2017-12-06T04:00:38.967Z,12.00
2017-12-06T04:03:07.851Z,11.60
2017-12-06T04:05:36.743Z,11.47
2017-12-06T04:08:05.578Z,11.33
2017-12-06T04:10:34.491Z,12.07
2017-12-06T04:13:03.373Z,12.03
2017-12-06T04:15:32.220Z,12.27
2017-12-06T04:18:01.069Z,12.20
2017-12-06T04:20:30.544Z,11.63
2017-12-06T04:22:59.393Z,11.97
2017-12-06T04:25:28.239Z,12.40
2017-12-06T04:27:57.119Z,12.13
2017-12-06T04:30:25.949Z,11.77
2017-12-06T04:32:54.835Z,12.00
2017-12-06T04:35:23.687Z,12.13
2017-12-06T04:37:52.533Z,10.87
2017-12-06T04:40:21.387Z,11.90
2017-12-06T04:42:50.259Z,11.97
2017-12-06T04:45:19.121Z,11.57
2017-12-06T04:47:47.959Z,12.03
2017-12-06T04:50:16.824Z,11.17
2017-12-06T04:52:45.667Z,10.60
2017-12-06T04:55:14.522Z,10.93
2017-12-06T04:57:43.417Z,11.03
2017-12-06T05:00:12.263Z,10.40
2017-12-06T05:02:41.367Z,10.77
2017-12-06T05:05:10.235Z,9.93
2017-12-06T05:07:39.073Z,11.13
2017-12-06T05:10:08.522Z,10.83
2017-12-06T05:12:37.384Z,12.87
2017-12-06T05:15:06.226Z,10.23
2017-12-06T05:17:35.082Z,11.53
2017-12-06T05:20:03.961Z,13.60
2017-12-06T05:22:32.836Z,12.80
2017-12-06T05:25:01.694Z,11.33
2017-12-06T05:27:30.879Z,11.23
2017-12-06T05:29:59.724Z,13.83
2017-12-06T05:32:28.567Z,12.60
2017-12-06T05:34:57.442Z,11.93
2017-12-06T05:37:26.273Z,16.40
2017-12-06T05:39:55.141Z,12.00
2017-12-06T05:42:24.021Z,12.30
2017-12-06T05:44:52.859Z,13.63
2017-12-06T05:47:21.775Z,13.03
2017-12-06T05:49:51.883Z,17.30
2017-12-06T05:52:20.961Z,12.40
2017-12-06T05:54:49.843Z,12.47
2017-12-06T05:57:18.702Z,11.70
2017-12-06T05:59:47.578Z,13.27
2017-12-06T06:02:16.431Z,12.40
2017-12-06T06:04:45.301Z,10.67
2017-12-06T06:07:14.135Z,11.03
2017-12-06T06:09:42.999Z,13.23
2017-12-06T06:12:11.906Z,11.70
2017-12-06T06:14:40.765Z,11.63
2017-12-06T06:17:10.135Z,11.40
2017-12-06T06:19:39.031Z,10.73
2017-12-06T06:22:07.901Z,11.47
2017-12-06T06:24:36.770Z,10.73
2017-12-06T06:27:05.639Z,10.20
2017-12-06T06:29:34.543Z,11.23
2017-12-06T06:32:03.421Z,10.97
2017-12-06T06:34:32.325Z,11.13
2017-12-06T06:37:01.167Z,10.67
2017-12-06T06:39:30.979Z,11.27
2017-12-06T06:41:59.862Z,11.13
2017-12-06T06:44:29.463Z,11.50
2017-12-06T06:46:58.378Z,11.37
2017-12-06T06:49:27.239Z,11.13
2017-12-06T06:51:56.129Z,11.53
2017-12-06T06:54:25.007Z,11.87
2017-12-06T06:56:53.871Z,11.70
2017-12-06T06:59:22.708Z,12.40
2017-12-06T07:01:51.581Z,11.83
2017-12-06T07:04:20.467Z,11.10
2017-12-06T07:06:49.996Z,11.90
2017-12-06T07:09:18.875Z,11.73
2017-12-06T07:11:47.802Z,11.80
2017-12-06T07:14:17.623Z,11.60
2017-12-06T07:16:46.489Z,13.37
2017-12-06T07:19:15.361Z,11.73
2017-12-06T07:21:44.221Z,13.93
2017-12-06T07:24:13.060Z,11.83
2017-12-06T07:26:41.967Z,10.97
2017-12-06T07:29:10.794Z,11.53
2017-12-06T07:31:39.637Z,12.87
2017-12-06T07:34:08.524Z,11.70
2017-12-06T07:36:37.359Z,11.77
2017-12-06T07:39:06.207Z,11.47
2017-12-06T07:41:35.116Z,10.30
2017-12-06T07:44:04.019Z,23.63
2017-12-06T07:46:32.871Z,21.50
2017-12-06T07:49:02.385Z,11.20
2017-12-06T07:51:31.275Z,11.20
2017-12-06T07:54:00.108Z,11.23
2017-12-06T07:56:28.969Z,10.97
2017-12-06T07:59:00.751Z,12.83
2017-12-06T08:01:29.630Z,16.63
2017-12-06T08:03:58.465Z,24.87
2017-12-06T08:06:27.341Z,11.23
2017-12-06T08:08:56.211Z,12.00
2017-12-06T08:11:25.072Z,11.67
2017-12-06T08:13:54.656Z,12.40
2017-12-06T08:16:23.533Z,14.60
2017-12-06T08:18:53.177Z,12.57
2017-12-06T08:21:22.081Z,14.83
2017-12-06T08:23:52.431Z,12.63
2017-12-06T08:26:21.267Z,11.00
2017-12-06T08:28:50.104Z,11.17
2017-12-06T08:31:18.973Z,13.67
2017-12-06T08:33:47.808Z,13.03
2017-12-06T08:36:16.668Z,16.37
2017-12-06T08:38:45.540Z,13.60
2017-12-06T08:41:15.267Z,12.33
2017-12-06T08:43:44.120Z,21.03
2017-12-06T08:46:12.985Z,13.67
2017-12-06T08:48:41.832Z,13.70
2017-12-06T08:51:10.681Z,14.23
2017-12-06T08:53:39.547Z,13.43
2017-12-06T08:56:08.405Z,12.33
2017-12-06T08:58:37.310Z,11.60
2017-12-06T09:01:06.158Z,11.20
2017-12-06T09:03:35.012Z,11.33
2017-12-06T09:06:04.801Z,12.07
2017-12-06T09:08:33.657Z,11.50
2017-12-06T09:11:02.501Z,12.23
2017-12-06T09:13:31.363Z,11.67
2017-12-06T09:16:01.029Z,17.47
2017-12-06T09:18:29.963Z,13.77
2017-12-06T09:20:59.277Z,14.87
2017-12-06T09:23:28.149Z,14.23
2017-12-06T09:25:57.768Z,14.43
2017-12-06T09:28:28.215Z,13.40
2017-12-06T09:30:57.068Z,13.87
2017-12-06T09:33:25.945Z,12.87
2017-12-06T09:35:55.275Z,12.20
2017-12-06T09:38:24.119Z,13.00
2017-12-06T09:40:53.005Z,12.67
2017-12-06T09:43:22.013Z,13.57
2017-12-06T09:45:51.450Z,14.37
2017-12-06T09:48:20.293Z,12.63
2017-12-06T09:50:49.155Z,12.23
2017-12-06T09:53:18.026Z,13.17
2017-12-06T09:55:46.873Z,14.13
2017-12-06T09:58:15.740Z,13.87
2017-12-06T10:00:44.651Z,14.73
2017-12-06T10:03:13.493Z,15.10
2017-12-06T10:05:43.307Z,13.73
2017-12-06T10:08:12.149Z,15.93
2017-12-06T10:10:40.995Z,13.23
2017-12-06T10:13:09.863Z,13.73
2017-12-06T10:15:38.729Z,14.77
2017-12-06T10:18:08.182Z,14.47
2017-12-06T10:20:37.778Z,15.33
2017-12-06T10:23:06.629Z,14.83
2017-12-06T10:25:35.472Z,15.60
2017-12-06T10:28:04.347Z,17.50
2017-12-06T10:30:33.179Z,16.63
2017-12-06T10:33:02.049Z,15.50
2017-12-06T10:35:30.984Z,16.40
2017-12-06T10:37:59.819Z,15.83
2017-12-06T10:40:28.661Z,15.73
2017-12-06T10:42:57.527Z,15.87
2017-12-06T10:45:27.023Z,16.40
2017-12-06T10:47:55.861Z,16.73
2017-12-06T10:50:24.734Z,17.30
2017-12-06T10:52:53.611Z,17.23
2017-12-06T10:55:24.019Z,17.10
2017-12-06T10:57:52.995Z,16.70
2017-12-06T11:00:21.835Z,16.50
2017-12-06T11:02:51.619Z,18.07
2017-12-06T11:05:21.039Z,16.67
2017-12-06T11:07:49.906Z,16.87
2017-12-06T11:10:18.849Z,18.93
2017-12-06T11:12:47.732Z,17.67
2017-12-06T11:15:16.571Z,18.43
2017-12-06T11:17:45.421Z,20.00
2017-12-06T11:20:14.301Z,18.47
2017-12-06T11:22:43.164Z,19.00
2017-12-06T11:25:12.015Z,19.10
2017-12-06T11:27:40.881Z,26.90
2017-12-06T11:30:09.773Z,19.33
2017-12-06T11:32:38.644Z,18.13
2017-12-06T11:35:07.507Z,17.40
2017-12-06T11:37:36.385Z,17.87
2017-12-06T11:40:05.275Z,18.50
2017-12-06T11:42:34.136Z,17.03
2017-12-06T11:45:03.847Z,16.73
2017-12-06T11:47:32.709Z,17.23
2017-12-06T11:50:01.599Z,16.73
2017-12-06T11:52:30.616Z,16.73
2017-12-06T11:54:59.457Z,15.70
2017-12-06T11:57:28.326Z,18.40
2017-12-06T11:59:57.179Z,16.37
2017-12-06T12:02:26.016Z,15.93
2017-12-06T12:04:55.385Z,15.47
2017-12-06T12:07:25.129Z,15.30
2017-12-06T12:09:54.018Z,16.17
2017-12-06T12:12:22.889Z,16.70
2017-12-06T12:14:51.729Z,18.57
2017-12-06T12:17:20.679Z,16.87
2017-12-06T12:19:50.391Z,18.00
2017-12-06T12:22:19.231Z,16.60
2017-12-06T12:24:48.287Z,16.20
2017-12-06T12:27:17.147Z,16.53
2017-12-06T12:29:46.021Z,17.10
2017-12-06T12:32:14.854Z,18.77
2017-12-06T12:34:44.560Z,17.00
2017-12-06T12:37:13.419Z,17.53
2017-12-06T12:39:42.280Z,20.77
2017-12-06T12:42:11.799Z,16.83
2017-12-06T12:44:41.453Z,20.03
2017-12-06T12:47:10.366Z,18.30
2017-12-06T12:49:39.176Z,21.60
2017-12-06T12:52:08.075Z,39.90
2017-12-06T12:54:37.115Z,17.03
2017-12-06T12:57:06.037Z,18.23
2017-12-06T12:59:34.889Z,22.20
2017-12-06T13:02:03.747Z,16.40
2017-12-06T13:04:32.707Z,15.43
2017-12-06T13:07:01.570Z,16.17
2017-12-06T13:09:30.417Z,16.17
2017-12-06T13:11:59.327Z,16.33
2017-12-06T13:14:28.179Z,15.73
2017-12-06T13:16:57.024Z,19.80
2017-12-06T13:19:27.787Z,20.23
2017-12-06T13:21:56.680Z,17.40
2017-12-06T13:24:25.508Z,19.33
2017-12-06T13:26:54.379Z,14.97
2017-12-06T13:29:23.242Z,16.37
2017-12-06T13:31:52.180Z,17.93
2017-12-06T13:34:21.686Z,15.47
2017-12-06T13:36:50.554Z,15.07
2017-12-06T13:39:19.427Z,14.80
2017-12-06T13:41:48.315Z,15.90
2017-12-06T13:44:17.185Z,16.33
2017-12-06T13:46:46.039Z,17.13
2017-12-06T13:49:14.927Z,15.67
2017-12-06T13:51:43.811Z,13.70
2017-12-06T13:54:12.680Z,15.77
2017-12-06T13:56:41.555Z,16.00
2017-12-06T13:59:10.417Z,16.33
2017-12-06T14:01:40.207Z,16.83
2017-12-06T14:04:09.203Z,16.63
2017-12-06T14:06:38.102Z,17.23
2017-12-06T14:09:06.957Z,15.83
2017-12-06T14:11:35.806Z,17.10
2017-12-06T14:14:05.156Z,18.10
2017-12-06T14:16:34.028Z,16.63
2017-12-06T14:19:02.891Z,16.87
2017-12-06T14:21:31.720Z,17.70
2017-12-06T14:24:00.566Z,18.00
2017-12-06T14:26:29.430Z,18.73
2017-12-06T14:28:58.279Z,18.70
2017-12-06T14:31:27.308Z,17.57
2017-12-06T14:33:56.230Z,18.77
2017-12-06T14:36:26.039Z,18.40
2017-12-06T14:38:54.872Z,16.67
2017-12-06T14:41:23.760Z,18.77
2017-12-06T14:43:52.596Z,18.03
2017-12-06T14:46:22.092Z,17.90
2017-12-06T14:48:50.977Z,17.93
2017-12-06T14:51:19.879Z,17.43
2017-12-06T14:53:49.923Z,18.33
2017-12-06T14:56:18.830Z,17.17
2017-12-06T14:58:48.065Z,18.37
2017-12-06T15:01:16.988Z,18.23
2017-12-06T15:03:45.849Z,17.67
2017-12-06T15:06:14.759Z,16.90
2017-12-06T15:08:43.630Z,18.20
2017-12-06T15:11:12.526Z,17.37
2017-12-06T15:13:41.388Z,18.57
2017-12-06T15:16:10.230Z,17.90
2017-12-06T15:18:39.143Z,17.97
2017-12-06T15:21:07.993Z,18.30
2017-12-06T15:23:36.849Z,18.30
2017-12-06T15:26:05.803Z,19.10
2017-12-06T15:28:34.812Z,22.50
2017-12-06T15:31:04.167Z,19.30
2017-12-06T15:33:33.056Z,18.27
2017-12-06T15:36:01.907Z,17.80
2017-12-06T15:38:32.865Z,17.23
2017-12-06T15:41:01.811Z,18.93
2017-12-06T15:43:30.663Z,18.53
2017-12-06T15:45:59.518Z,18.10
2017-12-06T15:48:28.421Z,18.00
2017-12-06T15:50:57.274Z,17.83
2017-12-06T15:53:26.159Z,17.17
2017-12-06T15:55:55.049Z,17.70
2017-12-06T15:58:23.890Z,19.03
2017-12-06T16:00:52.749Z,17.43
2017-12-06T16:03:21.698Z,17.70
2017-12-06T16:05:50.472Z,18.03
2017-12-06T16:08:19.319Z,18.17
2017-12-06T16:10:48.249Z,17.70
2017-12-06T16:13:17.206Z,17.90
2017-12-06T16:15:46.977Z,16.87
2017-12-06T16:18:16.099Z,17.53
2017-12-06T16:20:44.945Z,16.90
2017-12-06T16:23:13.799Z,20.60
2017-12-06T16:25:42.659Z,17.87
2017-12-06T16:28:11.535Z,18.80
2017-12-06T16:30:40.374Z,17.40
2017-12-06T16:33:10.004Z,18.00
2017-12-06T16:35:44.810Z,17.83
2017-12-06T16:38:13.689Z,20.20
2017-12-06T16:40:42.519Z,19.30
2017-12-06T16:43:11.346Z,19.00
2017-12-06T16:45:40.217Z,17.97
2017-12-06T16:48:09.577Z,18.70
2017-12-06T16:50:38.418Z,17.60
2017-12-06T16:53:07.281Z,17.10
2017-12-06T16:55:36.208Z,18.57
2017-12-06T16:58:05.064Z,18.33
2017-12-06T17:00:33.939Z,18.93
2017-12-06T17:03:02.835Z,18.10
2017-12-06T17:05:31.693Z,19.23
2017-12-06T17:08:00.565Z,19.07
2017-12-06T17:10:30.023Z,20.20
2017-12-06T17:12:58.900Z,18.37
2017-12-06T17:15:27.899Z,17.27
2017-12-06T17:17:56.737Z,18.70
2017-12-06T17:20:25.579Z,20.97
2017-12-06T17:22:54.451Z,18.23
2017-12-06T17:25:23.303Z,16.87
2017-12-06T17:27:52.211Z,17.17
2017-12-06T17:30:27.058Z,16.40
2017-12-06T17:32:55.903Z,16.67
2017-12-06T17:35:24.744Z,17.27
2017-12-06T17:37:53.713Z,17.17
2017-12-06T17:40:22.573Z,18.13
2017-12-06T17:42:51.641Z,16.50
2017-12-06T17:45:20.565Z,16.63
2017-12-06T17:47:49.451Z,16.07
2017-12-06T17:50:24.079Z,15.43
2017-12-06T17:52:52.981Z,16.13
2017-12-06T17:55:21.849Z,16.13
2017-12-06T17:57:51.447Z,16.33
2017-12-06T18:00:20.279Z,16.40
2017-12-06T18:02:49.141Z,15.70
2017-12-06T18:05:18.027Z,14.97
2017-12-06T18:07:46.883Z,14.63
2017-12-06T18:10:15.715Z,15.80
2017-12-06T18:12:44.590Z,15.30
2017-12-06T18:15:13.425Z,13.97
2017-12-06T18:17:42.303Z,16.37
2017-12-06T18:20:11.307Z,15.67
2017-12-06T18:22:40.164Z,21.23
2017-12-06T18:25:09.003Z,14.93
2017-12-06T18:27:37.914Z,20.10
2017-12-06T18:30:06.751Z,14.93
2017-12-06T18:32:35.627Z,15.10
2017-12-06T18:35:04.497Z,14.73
2017-12-06T18:37:33.337Z,15.53
2017-12-06T18:40:02.235Z,17.10
2017-12-06T18:42:31.107Z,14.57
2017-12-06T18:44:59.948Z,20.47
2017-12-06T18:47:28.787Z,17.27
2017-12-06T18:49:57.655Z,16.57
2017-12-06T18:52:26.510Z,15.90
2017-12-06T18:54:55.349Z,14.37
2017-12-06T18:57:24.272Z,14.70
2017-12-06T18:59:53.115Z,14.10
2017-12-06T19:02:21.945Z,16.13
2017-12-06T19:04:50.827Z,18.10
2017-12-06T19:07:19.681Z,14.80
2017-12-06T19:09:48.521Z,14.07
2017-12-06T19:12:17.398Z,13.33
2017-12-06T19:14:46.277Z,13.97
2017-12-06T19:17:15.111Z,13.90
2017-12-06T19:19:44.882Z,14.07
2017-12-06T19:22:13.759Z,14.57
2017-12-06T19:24:42.613Z,14.73
2017-12-06T19:27:11.501Z,15.13
2017-12-06T19:29:40.336Z,14.53
2017-12-06T19:32:09.192Z,13.93
2017-12-06T19:34:38.074Z,14.47
2017-12-06T19:37:06.952Z,15.07
2017-12-06T19:39:35.816Z,15.50
2017-12-06T19:42:04.693Z,14.00
2017-12-06T19:44:34.077Z,14.33
2017-12-06T19:47:02.959Z,14.40
2017-12-06T19:49:31.832Z,13.90
2017-12-06T19:52:00.697Z,13.83
2017-12-06T19:54:29.570Z,13.90
2017-12-06T19:56:59.650Z,13.37
2017-12-06T19:59:28.757Z,14.13
2017-12-06T20:01:57.609Z,12.97
2017-12-06T20:04:26.509Z,14.00
2017-12-06T20:06:55.374Z,12.47
2017-12-06T20:09:24.225Z,13.57
2017-12-06T20:11:53.104Z,13.13
2017-12-06T20:14:21.937Z,12.20
2017-12-06T20:16:50.777Z,12.50
2017-12-06T20:19:19.667Z,10.80
2017-12-06T20:21:48.507Z,11.53
2017-12-06T20:24:17.362Z,11.73
2017-12-06T20:26:46.267Z,10.93
2017-12-06T20:29:15.122Z,10.40
2017-12-06T20:31:43.986Z,11.30
2017-12-06T20:34:12.887Z,15.93
2017-12-06T20:36:41.732Z,20.60
2017-12-06T20:39:10.584Z,11.50
2017-12-06T20:41:39.492Z,10.47
2017-12-06T20:44:08.401Z,9.07
2017-12-06T20:46:37.259Z,10.17
2017-12-06T20:49:06.161Z,10.40
2017-12-06T20:51:34.991Z,10.43
2017-12-06T20:54:03.877Z,9.33
2017-12-06T20:56:32.765Z,10.23
2017-12-06T20:59:02.237Z,10.00
2017-12-06T21:01:32.300Z,9.50
2017-12-06T21:04:01.229Z,9.73
2017-12-06T21:06:30.095Z,9.53
2017-12-06T21:08:58.951Z,9.77
2017-12-06T21:11:27.823Z,9.73
2017-12-06T21:13:57.501Z,9.40
2017-12-06T21:16:26.373Z,9.50
2017-12-06T21:18:55.223Z,8.93
2017-12-06T21:21:24.128Z,9.73
2017-12-06T21:23:52.963Z,9.40
2017-12-06T21:26:22.421Z,10.07
2017-12-06T21:28:51.371Z,9.27
2017-12-06T21:31:20.211Z,9.60
2017-12-06T21:33:49.073Z,8.97
2017-12-06T21:36:17.945Z,10.97
2017-12-06T21:38:46.793Z,10.03
2017-12-06T21:41:15.856Z,10.87
2017-12-06T21:43:44.919Z,10.73
2017-12-06T21:46:13.768Z,10.17
2017-12-06T21:48:42.643Z,9.23
2017-12-06T21:51:11.549Z,11.30
2017-12-06T21:53:41.769Z,11.40
2017-12-06T21:56:10.609Z,11.80
2017-12-06T21:58:39.465Z,12.50
2017-12-06T22:01:08.693Z,11.00
2017-12-06T22:03:37.586Z,11.33
2017-12-06T22:06:07.231Z,12.37
2017-12-06T22:08:36.093Z,13.07
2017-12-06T22:11:04.973Z,12.90
2017-12-06T22:13:33.803Z,11.23
2017-12-06T22:16:02.665Z,11.33
2017-12-06T22:18:31.508Z,10.73
2017-12-06T22:21:00.347Z,11.13
2017-12-06T22:23:29.247Z,10.67
2017-12-06T22:25:58.082Z,12.10
2017-12-06T22:28:27.219Z,10.97
2017-12-06T22:30:56.096Z,10.40
2017-12-06T22:33:25.274Z,11.67
2017-12-06T22:35:55.650Z,19.17
2017-12-06T22:38:24.520Z,11.70
2017-12-06T22:40:53.355Z,14.83
2017-12-06T22:43:22.222Z,7.63
2017-12-06T22:45:51.103Z,11.20
2017-12-06T22:48:20.755Z,9.60
2017-12-06T22:50:49.592Z,8.47
2017-12-06T22:53:18.479Z,10.40
2017-12-06T22:55:47.339Z,11.27
2017-12-06T22:58:16.204Z,10.80
2017-12-06T23:00:45.085Z,11.07
2017-12-06T23:03:13.925Z,11.60
2017-12-06T23:05:42.767Z,10.47
2017-12-06T23:08:11.645Z,11.63
2017-12-06T23:10:40.587Z,11.10
2017-12-06T23:13:09.466Z,11.37
2017-12-06T23:15:38.346Z,9.77
2017-12-06T23:18:07.205Z,10.97
2017-12-06T23:20:36.045Z,10.73
2017-12-06T23:23:04.919Z,10.07
2017-12-06T23:25:33.782Z,10.40
2017-12-06T23:28:03.513Z,8.87
2017-12-06T23:30:32.414Z,9.83
2017-12-06T23:33:01.262Z,10.33
2017-12-06T23:35:30.107Z,10.30
2017-12-06T23:37:59.717Z,9.53
2017-12-06T23:40:28.573Z,8.47
2017-12-06T23:42:58.055Z,8.63
2017-12-06T23:45:26.983Z,9.33
2017-12-06T23:47:55.949Z,8.30
2017-12-06T23:50:24.861Z,8.73
2017-12-06T23:52:53.717Z,8.80
2017-12-06T23:55:22.567Z,7.40
2017-12-06T23:57:53.063Z,8.90
